Time;durP1;ratioP1;P1;durP2;ratioP2;P2;SDS_P1;SDS_P2;PMS_P1;PMS_P2;Temp;Humidity;BMP_temperature;BMP_pressure;BME280_temperature;BME280_humidity;BME280_pressure;Samples;Min_cycle;Max_cycle;Signal;HPM_P1;HPM_P2
2023/06/20 04:00:39;;;;;;;5.43;3.07;;;20.80;97.30;;;;;;5894530;23;20378;-92
2023/06/20 04:03:05;;;;;;;8.40;5.73;;;20.80;97.30;;;;;;4944516;29;20519;-83
2023/06/20 04:05:30;;;;;;;6.33;4.50;;;20.80;97.30;;;;;;4942978;29;20682;-87
2023/06/20 04:07:56;;;;;;;8.03;4.67;;;20.80;97.30;;;;;;4939683;28;20664;-84
2023/06/20 04:10:21;;;;;;;5.73;4.10;;;20.90;97.30;;;;;;4938595;29;20176;-85
2023/06/20 04:12:47;;;;;;;3.60;3.23;;;20.90;97.30;;;;;;4948647;29;20175;-88
2023/06/20 04:17:47;;;;;;;2.87;2.70;;;20.90;97.30;;;;;;4946800;29;20237;-81
2023/06/20 04:20:12;;;;;;;6.63;3.90;;;21.00;97.30;;;;;;4943425;29;20609;-81
2023/06/20 04:22:44;;;;;;;3.93;3.73;;;21.00;97.30;;;;;;4916817;29;20216;-79
2023/06/20 04:25:11;;;;;;;5.27;4.50;;;21.00;97.30;;;;;;4923660;29;20298;-76
2023/06/20 04:27:37;;;;;;;9.40;4.47;;;21.10;97.30;;;;;;4925437;29;20423;-79
2023/06/20 04:30:05;;;;;;;6.07;4.00;;;21.10;97.30;;;;;;4923237;29;20451;-79
2023/06/20 04:32:31;;;;;;;7.23;4.57;;;21.10;97.30;;;;;;4913268;29;20428;-79
2023/06/20 04:34:57;;;;;;;3.63;3.43;;;21.20;97.30;;;;;;4923345;29;21004;-78
2023/06/20 04:37:22;;;;;;;6.27;3.40;;;21.20;97.30;;;;;;4932818;29;20424;-83
2023/06/20 04:39:48;;;;;;;5.60;3.30;;;21.20;97.30;;;;;;4930728;29;20196;-81
2023/06/20 04:42:13;;;;;;;7.07;4.13;;;21.30;97.30;;;;;;4921413;29;20197;-80
2023/06/20 04:44:38;;;;;;;5.90;3.97;;;21.30;97.30;;;;;;4928167;29;20263;-81
2023/06/20 04:47:04;;;;;;;5.93;5.40;;;21.30;97.30;;;;;;4929084;29;20649;-84
2023/06/20 04:49:30;;;;;;;4.80;3.80;;;21.30;97.30;;;;;;4928763;29;20187;-85
2023/06/20 04:51:57;;;;;;;6.20;5.20;;;21.40;97.30;;;;;;4922418;29;20672;-84
2023/06/20 04:54:24;;;;;;;6.63;4.87;;;21.40;97.30;;;;;;4920026;29;20640;-85
2023/06/20 04:56:50;;;;;;;8.30;5.00;;;21.40;97.30;;;;;;4933170;29;20912;-84
2023/06/20 04:59:15;;;;;;;9.70;5.10;;;21.40;97.30;;;;;;4919647;29;20436;-83
2023/06/20 05:01:41;;;;;;;5.33;5.03;;;21.50;97.30;;;;;;4912351;29;20212;-80
2023/06/20 05:04:06;;;;;;;9.63;5.80;;;21.50;97.30;;;;;;4920478;29;20212;-80
2023/06/20 05:06:32;;;;;;;9.83;4.97;;;21.50;97.30;;;;;;4919957;29;20191;-80
2023/06/20 05:08:59;;;;;;;4.33;4.10;;;21.50;97.30;;;;;;4917913;29;20192;-81
2023/06/20 05:11:25;;;;;;;5.00;4.13;;;21.50;97.30;;;;;;4925832;29;20686;-79
2023/06/20 05:13:50;;;;;;;6.53;3.87;;;21.50;97.30;;;;;;4921992;29;20436;-80
2023/06/20 05:16:16;;;;;;;12.07;5.23;;;21.60;97.30;;;;;;4923917;29;20479;-80
2023/06/20 05:18:41;;;;;;;4.10;3.40;;;21.60;97.30;;;;;;4923486;29;20199;-84
2023/06/20 05:21:07;;;;;;;6.47;4.43;;;21.60;97.30;;;;;;4928505;29;20242;-84
2023/06/20 05:23:32;;;;;;;5.53;3.83;;;21.60;97.30;;;;;;4916885;29;20207;-78
2023/06/20 05:26:00;;;;;;;6.87;5.10;;;21.50;97.30;;;;;;4917146;29;20214;-79
2023/06/20 05:28:25;;;;;;;7.63;6.00;;;21.50;97.30;;;;;;4912741;29;20180;-79
2023/06/20 05:30:51;;;;;;;8.80;4.43;;;21.50;97.30;;;;;;4920695;29;20440;-79
2023/06/20 05:33:16;;;;;;;4.37;4.07;;;21.50;97.30;;;;;;4919557;29;20267;-79
2023/06/20 05:35:44;;;;;;;6.93;4.73;;;21.50;97.30;;;;;;4927003;29;20286;-79
2023/06/20 05:38:11;;;;;;;14.23;8.40;;;21.50;97.30;;;;;;4916016;29;20240;-80
2023/06/20 05:40:36;;;;;;;6.53;5.63;;;21.50;97.30;;;;;;4922032;29;20518;-80
2023/06/20 05:43:02;;;;;;;7.10;4.30;;;21.50;97.30;;;;;;4919293;29;20936;-80
2023/06/20 05:45:27;;;;;;;5.77;4.97;;;21.50;97.30;;;;;;4909373;29;20220;-80
2023/06/20 05:47:53;;;;;;;10.20;5.17;;;21.50;97.30;;;;;;4920472;29;20620;-80
2023/06/20 05:50:18;;;;;;;5.40;5.10;;;21.50;97.30;;;;;;4920644;29;20184;-79
2023/06/20 05:52:44;;;;;;;8.13;5.90;;;21.40;97.30;;;;;;4915106;29;20675;-79
2023/06/20 05:55:09;;;;;;;7.53;3.50;;;21.40;97.30;;;;;;4929690;29;20200;-80
2023/06/20 05:57:35;;;;;;;4.33;4.03;;;21.40;97.30;;;;;;4930083;29;20188;-80
2023/06/20 06:00:00;;;;;;;8.37;4.90;;;21.50;97.30;;;;;;4921828;29;20270;-79
2023/06/20 06:02:26;;;;;;;12.80;6.77;;;21.50;97.30;;;;;;4922189;29;20215;-80
2023/06/20 06:04:52;;;;;;;8.20;5.20;;;21.60;97.30;;;;;;4921691;29;20239;-83
2023/06/20 06:07:17;;;;;;;11.13;5.47;;;21.60;97.30;;;;;;4912035;29;20180;-84
2023/06/20 06:09:43;;;;;;;7.83;4.30;;;21.60;97.30;;;;;;4925618;29;20183;-83
2023/06/20 06:12:10;;;;;;;10.20;5.53;;;21.70;97.30;;;;;;4931454;29;20400;-79
2023/06/20 06:14:35;;;;;;;9.57;5.63;;;21.70;97.30;;;;;;4925009;29;20181;-79
2023/06/20 06:17:01;;;;;;;16.00;5.90;;;21.80;97.30;;;;;;4930131;29;21001;-78
2023/06/20 06:19:26;;;;;;;6.10;5.50;;;21.80;97.30;;;;;;4922521;29;20223;-82
2023/06/20 06:21:52;;;;;;;6.27;4.10;;;21.80;97.30;;;;;;4926732;29;20259;-81
2023/06/20 06:24:21;;;;;;;10.57;5.03;;;21.90;97.30;;;;;;4920961;29;20700;-79
2023/06/20 06:26:48;;;;;;;8.80;6.57;;;21.90;97.30;;;;;;4930475;29;20239;-81
2023/06/20 06:29:15;;;;;;;7.10;4.53;;;21.90;97.30;;;;;;4918640;29;20511;-77
2023/06/20 06:31:40;;;;;;;8.80;6.53;;;21.90;97.30;;;;;;4929255;29;20451;-77
2023/06/20 06:34:06;;;;;;;6.70;5.00;;;21.90;97.30;;;;;;4919083;29;20470;-80
2023/06/20 06:36:33;;;;;;;6.70;5.53;;;21.90;97.30;;;;;;4929056;29;20228;-80
2023/06/20 06:39:00;;;;;;;4.93;4.37;;;22.00;97.30;;;;;;4928039;29;20184;-76
2023/06/20 06:41:26;;;;;;;10.67;7.70;;;21.90;97.30;;;;;;4930969;29;20475;-74
2023/06/20 06:43:52;;;;;;;9.53;6.33;;;21.90;97.30;;;;;;4927850;29;20455;-74
2023/06/20 06:46:18;;;;;;;7.37;5.80;;;21.90;97.30;;;;;;4917715;29;20936;-74
2023/06/20 06:48:43;;;;;;;9.93;4.00;;;21.90;97.30;;;;;;4933978;29;20243;-74
2023/06/20 06:51:09;;;;;;;6.97;4.60;;;21.90;97.30;;;;;;4930632;29;20196;-75
2023/06/20 06:53:34;;;;;;;8.80;4.37;;;21.90;97.30;;;;;;4928196;29;20181;-74
2023/06/20 06:56:00;;;;;;;10.13;5.90;;;21.90;97.30;;;;;;4924628;29;20182;-75
2023/06/20 06:58:25;;;;;;;9.33;5.27;;;21.90;97.30;;;;;;4922058;29;20649;-74
2023/06/20 07:00:52;;;;;;;7.20;4.90;;;21.90;97.30;;;;;;4923461;29;20252;-76
2023/06/20 07:03:17;;;;;;;8.40;5.77;;;21.90;97.30;;;;;;4927194;29;20691;-76
2023/06/20 07:05:43;;;;;;;10.27;5.10;;;21.90;97.30;;;;;;4915377;29;20468;-73
2023/06/20 07:08:08;;;;;;;6.63;5.40;;;21.80;97.30;;;;;;4931978;29;20182;-77
2023/06/20 07:10:34;;;;;;;9.67;5.30;;;21.80;97.30;;;;;;4923171;29;20207;-77
2023/06/20 07:13:00;;;;;;;6.13;4.23;;;21.80;97.30;;;;;;4922853;29;20323;-84
2023/06/20 07:15:26;;;;;;;4.93;4.57;;;21.80;97.30;;;;;;4927111;29;20184;-80
2023/06/20 07:17:52;;;;;;;12.70;5.83;;;21.70;97.30;;;;;;4925213;29;20448;-80
2023/06/20 07:20:17;;;;;;;18.30;6.27;;;21.60;97.30;;;;;;4929115;29;20955;-80
2023/06/20 07:22:45;;;;;;;11.10;5.80;;;21.60;97.30;;;;;;4924299;29;20192;-78
2023/06/20 07:25:11;;;;;;;7.03;6.03;;;21.50;97.30;;;;;;4915350;29;20224;-78
2023/06/20 07:27:36;;;;;;;9.07;6.60;;;21.40;97.30;;;;;;4919605;29;20423;-78
2023/06/20 07:30:02;;;;;;;10.37;6.57;;;21.40;97.30;;;;;;4929954;29;20195;-77
2023/06/20 07:32:28;;;;;;;8.00;4.60;;;21.30;97.30;;;;;;4922361;29;20204;-77
2023/06/20 07:34:53;;;;;;;5.40;4.70;;;21.30;97.30;;;;;;4923991;29;20436;-77
2023/06/20 07:37:19;;;;;;;5.83;5.10;;;21.30;97.30;;;;;;4919444;29;20188;-76
2023/06/20 07:39:46;;;;;;;6.90;5.33;;;21.30;97.30;;;;;;4915769;29;20263;-77
2023/06/20 07:42:13;;;;;;;3.87;3.70;;;21.20;97.30;;;;;;4921600;29;20204;-76
2023/06/20 07:44:38;;;;;;;5.10;4.07;;;21.20;97.30;;;;;;4931089;29;20567;-77
2023/06/20 07:47:04;;;;;;;5.20;4.87;;;21.20;97.30;;;;;;4928408;29;20511;-76
2023/06/20 07:49:30;;;;;;;9.43;5.10;;;21.10;97.30;;;;;;4925914;29;20176;-77
2023/06/20 07:51:55;;;;;;;13.37;6.60;;;21.10;97.30;;;;;;4929924;29;20208;-77
2023/06/20 07:54:21;;;;;;;3.50;3.27;;;21.10;97.30;;;;;;4921994;29;20212;-85
2023/06/20 07:56:46;;;;;;;5.83;3.80;;;21.00;97.30;;;;;;4922980;29;20227;-84
2023/06/20 07:59:12;;;;;;;5.90;5.00;;;20.90;97.30;;;;;;4915429;29;20189;-84
2023/06/20 08:01:37;;;;;;;4.70;3.30;;;20.90;97.30;;;;;;4915198;29;20684;-83
2023/06/20 08:04:03;;;;;;;8.73;3.60;;;20.80;97.30;;;;;;4921783;29;20200;-83
2023/06/20 08:06:29;;;;;;;4.63;3.13;;;20.80;97.30;;;;;;4927796;29;20184;-82
2023/06/20 08:08:55;;;;;;;3.80;2.70;;;20.80;97.30;;;;;;4931885;29;20653;-84
2023/06/20 08:11:21;;;;;;;3.80;3.60;;;20.70;97.30;;;;;;4949132;28;20196;-84
2023/06/20 08:13:47;;;;;;;3.13;2.37;;;20.70;97.30;;;;;;4925207;29;20207;-87
2023/06/20 08:16:13;;;;;;;6.33;4.77;;;20.70;97.30;;;;;;4931908;29;20523;-84
2023/06/20 08:18:38;;;;;;;5.20;3.67;;;20.60;97.30;;;;;;4925149;29;20260;-83
2023/06/20 08:21:04;;;;;;;3.10;2.90;;;20.60;97.30;;;;;;4929638;29;20287;-79
2023/06/20 08:23:29;;;;;;;7.03;3.23;;;20.60;97.30;;;;;;4933696;29;20187;-80
2023/06/20 08:25:56;;;;;;;4.83;4.53;;;20.60;97.30;;;;;;4931048;28;20192;-80
2023/06/20 08:28:22;;;;;;;4.33;4.03;;;20.70;97.30;;;;;;4932957;29;20660;-76
2023/06/20 08:30:47;;;;;;;8.67;2.97;;;20.60;97.30;;;;;;4928878;29;20564;-79
2023/06/20 08:33:13;;;;;;;5.00;4.50;;;20.60;97.30;;;;;;4912288;29;20424;-79
2023/06/20 08:35:39;;;;;;;6.90;3.73;;;20.50;97.30;;;;;;4920679;29;20184;-78
2023/06/20 08:38:05;;;;;;;9.60;4.93;;;20.40;97.30;;;;;;4913029;29;20188;-77
2023/06/20 08:40:31;;;;;;;8.33;5.53;;;20.40;97.30;;;;;;4920941;29;20209;-76
2023/06/20 08:42:57;;;;;;;5.90;4.40;;;20.30;97.30;;;;;;4926232;29;20428;-78
2023/06/20 08:45:23;;;;;;;8.77;7.27;;;20.30;97.30;;;;;;4918806;29;20219;-76
2023/06/20 08:47:48;;;;;;;6.80;4.67;;;20.20;97.30;;;;;;4926717;29;20489;-79
2023/06/20 08:50:14;;;;;;;8.73;4.53;;;20.30;97.30;;;;;;4924914;29;20189;-83
2023/06/20 08:52:47;;;;;;;10.63;6.40;;;20.30;97.30;;;;;;4920605;29;20179;-79
2023/06/20 08:55:14;;;;;;;8.53;6.00;;;20.20;97.30;;;;;;4927063;29;20191;-80
2023/06/20 08:57:40;;;;;;;11.43;6.73;;;20.20;97.30;;;;;;4912731;29;20433;-78
2023/06/20 09:00:07;;;;;;;4.90;4.33;;;20.20;97.30;;;;;;4919170;29;20486;-76
2023/06/20 09:02:33;;;;;;;8.67;6.47;;;20.20;97.30;;;;;;4923661;29;20590;-80
2023/06/20 09:05:04;;;;;;;9.57;6.30;;;20.10;97.30;;;;;;4917434;29;20456;-76
2023/06/20 09:07:37;;;;;;;6.07;5.10;;;20.20;97.30;;;;;;4920379;29;20180;-77
2023/06/20 09:10:08;;;;;;;6.47;4.70;;;20.20;97.30;;;;;;4920652;29;20428;-74
2023/06/20 09:12:56;;;;;;;7.23;5.37;;;20.30;97.30;;;;;;4924609;29;20432;-78
2023/06/20 09:15:25;;;;;;;12.70;9.10;;;20.40;97.30;;;;;;4914707;29;20435;-77
2023/06/20 09:17:52;;;;;;;17.03;8.20;;;20.50;97.30;;;;;;4919319;29;20526;-76
2023/06/20 09:20:18;;;;;;;14.03;7.27;;;20.50;97.30;;;;;;4919396;29;20432;-77
2023/06/20 09:22:44;;;;;;;9.60;7.20;;;20.60;97.30;;;;;;4918441;29;20427;-76
2023/06/20 09:25:11;;;;;;;13.60;7.83;;;20.70;97.30;;;;;;4918998;29;20460;-77
2023/06/20 09:27:41;;;;;;;9.97;7.37;;;20.80;97.30;;;;;;4915091;29;20263;-73
2023/06/20 09:30:08;;;;;;;7.80;7.40;;;20.90;97.30;;;;;;4925001;29;20482;-75
2023/06/20 09:32:41;;;;;;;17.13;8.80;;;21.00;97.30;;;;;;4925229;29;20494;-75
2023/06/20 09:35:09;;;;;;;13.20;8.20;;;21.10;97.30;;;;;;4920651;29;20435;-75
2023/06/20 09:37:45;;;;;;;14.20;7.73;;;21.10;97.30;;;;;;4925226;29;20438;-75
2023/06/20 09:40:15;;;;;;;11.37;7.50;;;21.20;97.30;;;;;;4927838;29;20426;-76
2023/06/20 09:42:43;;;;;;;12.60;6.10;;;21.20;97.30;;;;;;4919574;29;20856;-73
2023/06/20 09:45:12;;;;;;;10.90;7.07;;;21.20;97.30;;;;;;4923509;29;20472;-75
2023/06/20 09:47:39;;;;;;;11.47;7.00;;;21.30;97.30;;;;;;4923797;29;20943;-75
2023/06/20 09:50:19;;;;;;;22.57;7.90;;;21.40;97.30;;;;;;4927735;29;20430;-77
2023/06/20 09:53:09;;;;;;;7.50;7.10;;;21.50;97.30;;;;;;4921607;29;20796;-73
2023/06/20 09:55:36;;;;;;;11.27;7.33;;;21.60;97.30;;;;;;4910796;29;20856;-75
2023/06/20 09:58:04;;;;;;;6.27;4.70;;;21.70;97.30;;;;;;4922999;29;21005;-75
2023/06/20 10:00:31;;;;;;;10.87;6.97;;;21.80;97.30;;;;;;4919737;29;20881;-75
2023/06/20 10:03:10;;;;;;;11.17;5.07;;;21.80;97.30;;;;;;4926352;29;20506;-75
2023/06/20 10:05:37;;;;;;;13.47;6.43;;;21.90;97.30;;;;;;4928857;29;20481;-74
2023/06/20 10:08:03;;;;;;;8.80;6.23;;;22.10;97.30;;;;;;4930369;29;20416;-75
2023/06/20 10:10:29;;;;;;;5.67;4.97;;;22.20;97.30;;;;;;4917422;29;20507;-75
2023/06/20 10:12:55;;;;;;;8.37;5.10;;;22.20;97.30;;;;;;4916959;29;20456;-74
2023/06/20 10:15:21;;;;;;;9.50;5.40;;;22.30;97.30;;;;;;4930639;29;20184;-76
2023/06/20 10:17:47;;;;;;;8.43;4.63;;;22.50;97.30;;;;;;4947907;23;20497;-73
2023/06/20 10:20:33;;;;;;;6.60;5.70;;;22.60;97.30;;;;;;4950128;28;20430;-74
2023/06/20 10:23:04;;;;;;;10.83;6.30;;;22.80;97.30;;;;;;4951623;29;20179;-76
2023/06/20 10:25:30;;;;;;;8.13;4.93;;;22.90;97.30;;;;;;4947663;28;20478;-76
2023/06/20 10:27:58;;;;;;;7.10;6.27;;;23.00;97.30;;;;;;4950676;29;20449;-75
2023/06/20 10:30:46;;;;;;;12.00;6.30;;;23.20;97.30;;;;;;4944076;29;20455;-77
2023/06/20 10:33:12;;;;;;;8.53;4.90;;;23.30;97.30;;;;;;4942952;29;20431;-77
2023/06/20 10:35:56;;;;;;;7.03;5.10;;;23.30;97.30;;;;;;4950710;29;20438;-77
2023/06/20 10:38:21;;;;;;;7.23;5.63;;;23.50;97.30;;;;;;4951910;29;20426;-76
2023/06/20 10:40:47;;;;;;;9.97;5.73;;;23.60;97.30;;;;;;4927913;29;20451;-78
2023/06/20 10:43:17;;;;;;;11.63;7.33;;;23.70;97.30;;;;;;4950922;29;20222;-77
2023/06/20 10:45:59;;;;;;;6.07;4.93;;;23.80;97.30;;;;;;4946866;29;20219;-77
2023/06/20 10:48:26;;;;;;;6.73;5.77;;;23.90;97.30;;;;;;4948424;29;20439;-75
2023/06/20 10:51:01;;;;;;;10.07;5.07;;;24.00;97.30;;;;;;4947659;28;20481;-77
2023/06/20 10:53:29;;;;;;;7.97;5.70;;;24.10;97.30;;;;;;4946594;29;20426;-76
2023/06/20 10:55:55;;;;;;;8.23;5.17;;;24.10;97.30;;;;;;4939834;29;20530;-78
2023/06/20 10:58:20;;;;;;;6.43;4.90;;;24.20;97.30;;;;;;4943920;29;20490;-80
2023/06/20 11:00:47;;;;;;;5.43;4.30;;;24.30;97.30;;;;;;4948515;28;20197;-78
2023/06/20 11:03:13;;;;;;;6.00;4.50;;;24.30;97.30;;;;;;4951601;28;20241;-77
2023/06/20 11:05:39;;;;;;;7.23;4.70;;;24.40;97.30;;;;;;4952190;28;21034;-78
2023/06/20 11:08:07;;;;;;;5.73;5.20;;;24.50;97.30;;;;;;4950967;28;20427;-77
2023/06/20 11:10:34;;;;;;;6.50;4.17;;;24.60;97.30;;;;;;4952230;28;20202;-76
2023/06/20 11:13:02;;;;;;;10.10;6.03;;;24.70;97.30;;;;;;4952493;28;20431;-78
2023/06/20 11:15:29;;;;;;;5.90;5.10;;;24.80;97.30;;;;;;4944082;29;20438;-78
2023/06/20 11:17:56;;;;;;;6.67;4.60;;;24.90;97.30;;;;;;4951905;28;20500;-80
2023/06/20 11:20:24;;;;;;;6.00;4.43;;;25.10;97.30;;;;;;4950412;29;20738;-81
2023/06/20 11:22:52;;;;;;;4.17;3.20;;;25.20;97.30;;;;;;4949932;29;20461;-79
2023/06/20 11:25:26;;;;;;;6.10;4.97;;;25.30;97.30;;;;;;4950868;29;20505;-80
2023/06/20 11:27:52;;;;;;;4.50;4.20;;;25.40;97.30;;;;;;4947006;29;20449;-82
2023/06/20 11:30:25;;;;;;;5.30;3.97;;;25.50;97.30;;;;;;4951925;28;20795;-80
2023/06/20 11:33:07;;;;;;;5.20;3.80;;;25.60;97.30;;;;;;4950597;29;20183;-80
2023/06/20 11:35:49;;;;;;;12.60;4.70;;;25.70;97.30;;;;;;4940031;29;20850;-77
2023/06/20 11:38:23;;;;;;;4.23;3.50;;;25.90;97.30;;;;;;4944906;28;20938;-78
2023/06/20 11:41:06;;;;;;;11.53;6.07;;;26.00;97.30;;;;;;4944112;28;21009;-82
2023/06/20 11:43:41;;;;;;;10.63;3.53;;;26.10;97.30;;;;;;4950722;29;20493;-77
2023/06/20 11:46:08;;;;;;;7.97;2.87;;;26.10;97.30;;;;;;4932683;29;20470;-79
2023/06/20 11:48:34;;;;;;;5.70;4.57;;;26.20;97.30;;;;;;4944417;29;20507;-77
2023/06/20 11:51:02;;;;;;;3.13;2.93;;;26.30;97.30;;;;;;4950804;28;20497;-76
2023/06/20 11:53:35;;;;;;;6.30;3.90;;;26.30;97.30;;;;;;4941552;29;20954;-78
2023/06/20 11:56:09;;;;;;;8.13;3.80;;;26.40;97.30;;;;;;4950749;28;20427;-77
2023/06/20 11:58:45;;;;;;;5.57;4.07;;;26.30;97.30;;;;;;4945417;29;20513;-77
2023/06/20 12:01:23;;;;;;;3.17;3.00;;;26.30;97.30;;;;;;4949461;28;20458;-77
2023/06/20 12:04:02;;;;;;;6.10;3.50;;;26.40;97.30;;;;;;4945760;29;20427;-77
2023/06/20 12:06:39;;;;;;;3.40;3.20;;;26.60;97.30;;;;;;4946280;29;20442;-77
2023/06/20 12:09:11;;;;;;;4.90;4.60;;;26.70;97.30;;;;;;4949862;29;20437;-79
2023/06/20 12:11:52;;;;;;;6.43;4.20;;;26.80;97.30;;;;;;4947023;29;21039;-80
2023/06/20 12:14:18;;;;;;;6.13;4.33;;;26.80;97.30;;;;;;4949874;29;20414;-81
2023/06/20 12:16:44;;;;;;;8.80;4.67;;;26.90;97.30;;;;;;4949893;29;20826;-80
2023/06/20 12:19:10;;;;;;;8.87;4.10;;;27.00;97.30;;;;;;4943429;29;20454;-81
2023/06/20 12:21:39;;;;;;;17.87;4.97;;;27.10;97.30;;;;;;4946636;28;20226;-80
2023/06/20 12:24:09;;;;;;;6.77;4.90;;;27.20;97.30;;;;;;4948446;28;20475;-81
2023/06/20 12:26:35;;;;;;;4.53;4.23;;;27.40;97.30;;;;;;4961272;28;20450;-80
2023/06/20 12:29:00;;;;;;;32.70;4.00;;;27.50;97.30;;;;;;4944525;29;20791;-82
2023/06/20 12:31:26;;;;;;;5.97;3.93;;;27.50;97.30;;;;;;4946924;28;20201;-80
2023/06/20 12:33:52;;;;;;;8.87;5.53;;;27.50;97.30;;;;;;4946816;28;20179;-81
2023/06/20 12:36:17;;;;;;;5.53;4.20;;;27.60;97.30;;;;;;4958787;28;20175;-81
2023/06/20 12:38:44;;;;;;;7.80;5.57;;;27.70;97.10;;;;;;4959258;28;20446;-82
2023/06/20 12:41:12;;;;;;;9.07;6.23;;;27.70;96.10;;;;;;4945336;29;20694;-81
2023/06/20 12:43:38;;;;;;;7.93;4.67;;;27.70;96.40;;;;;;4941519;29;20438;-81
2023/06/20 12:46:04;;;;;;;5.50;4.10;;;27.80;96.30;;;;;;4947929;29;20467;-81
2023/06/20 12:48:31;;;;;;;3.63;2.77;;;27.80;96.10;;;;;;4950111;29;20446;-80
2023/06/20 12:50:56;;;;;;;5.43;3.90;;;27.90;96.90;;;;;;4949154;28;20706;-81
2023/06/20 12:53:22;;;;;;;9.90;3.43;;;27.90;95.80;;;;;;4945932;28;20449;-84
2023/06/20 12:55:48;;;;;;;6.43;4.40;;;27.90;95.80;;;;;;4948543;29;20706;-83
2023/06/20 12:58:14;;;;;;;7.30;4.40;;;28.00;95.80;;;;;;4948821;29;20195;-81
2023/06/20 13:00:44;;;;;;;5.77;4.37;;;28.00;95.80;;;;;;4948588;28;20570;-81
2023/06/20 13:03:10;;;;;;;3.87;3.00;;;28.00;97.00;;;;;;4949502;28;20506;-79
2023/06/20 13:05:36;;;;;;;14.40;4.10;;;28.10;96.30;;;;;;4948545;28;20580;-80
2023/06/20 13:08:05;;;;;;;4.83;4.40;;;28.10;94.70;;;;;;4951094;28;20465;-85
2023/06/20 13:10:31;;;;;;;7.23;3.50;;;28.10;93.90;;;;;;4943670;28;20641;-84
2023/06/20 13:12:58;;;;;;;4.03;3.83;;;28.20;95.30;;;;;;4949386;28;20435;-83
2023/06/20 13:15:29;;;;;;;5.33;3.57;;;28.30;95.40;;;;;;4949889;29;20441;-80
2023/06/20 13:17:55;;;;;;;7.67;4.43;;;28.30;95.40;;;;;;4944242;29;20984;-81
2023/06/20 13:20:24;;;;;;;5.50;3.50;;;28.30;95.20;;;;;;4949440;28;20518;-84
2023/06/20 13:22:53;;;;;;;4.77;3.00;;;28.30;95.40;;;;;;4949794;28;20442;-83
2023/06/20 13:25:19;;;;;;;15.80;3.90;;;28.40;95.30;;;;;;4949417;28;20462;-82
2023/06/20 13:27:50;;;;;;;7.60;4.30;;;28.50;94.90;;;;;;4950458;28;20434;-83
2023/06/20 13:30:19;;;;;;;6.43;3.43;;;28.70;94.30;;;;;;4931610;29;20455;-82
2023/06/20 13:32:46;;;;;;;7.03;3.40;;;28.80;94.40;;;;;;4942734;29;20419;-83
2023/06/20 13:35:13;;;;;;;4.43;3.40;;;29.00;92.70;;;;;;4948741;29;20487;-82
2023/06/20 13:37:42;;;;;;;7.40;4.17;;;29.10;92.90;;;;;;4949695;29;20430;-81
2023/06/20 13:40:12;;;;;;;2.63;2.43;;;29.20;92.20;;;;;;4946704;28;20450;-78
2023/06/20 13:42:44;;;;;;;3.67;2.53;;;29.20;91.80;;;;;;4946621;28;21171;-81
2023/06/20 13:45:18;;;;;;;3.97;2.77;;;29.20;91.40;;;;;;4938505;29;20460;-77
2023/06/20 13:47:45;;;;;;;6.90;3.50;;;29.30;90.70;;;;;;4929420;29;20414;-83
2023/06/20 13:50:13;;;;;;;3.07;2.50;;;29.30;90.30;;;;;;4949754;28;20473;-81
2023/06/20 13:52:39;;;;;;;5.13;3.60;;;29.30;90.10;;;;;;4940202;28;20859;-76
2023/06/20 13:55:05;;;;;;;6.90;3.93;;;29.40;90.40;;;;;;4950297;29;20426;-83
2023/06/20 13:57:32;;;;;;;6.77;3.27;;;29.60;89.80;;;;;;4933990;29;20187;-79
2023/06/20 14:00:00;;;;;;;4.20;3.67;;;29.70;89.70;;;;;;4947300;29;20434;-77
2023/06/20 14:02:26;;;;;;;4.57;3.20;;;29.90;90.20;;;;;;4947068;28;20553;-77
2023/06/20 14:04:55;;;;;;;3.30;2.90;;;30.00;89.70;;;;;;4948483;29;20476;-77
2023/06/20 14:07:22;;;;;;;4.33;3.70;;;30.30;89.70;;;;;;4943220;28;20964;-77
2023/06/20 14:09:48;;;;;;;5.07;3.33;;;30.50;89.10;;;;;;4946042;28;20458;-78
2023/06/20 14:12:14;;;;;;;3.53;2.67;;;30.70;88.40;;;;;;4947182;28;20479;-77
2023/06/20 14:14:39;;;;;;;2.83;2.33;;;30.70;86.80;;;;;;4948619;29;20188;-76
2023/06/20 14:17:05;;;;;;;3.57;3.37;;;30.80;88.00;;;;;;4949101;29;20278;-79
2023/06/20 14:19:32;;;;;;;5.13;3.50;;;30.90;87.80;;;;;;4949194;29;20218;-76
2023/06/20 14:21:58;;;;;;;4.27;3.20;;;31.00;87.60;;;;;;4948093;28;20655;-75
2023/06/20 14:24:24;;;;;;;3.23;2.60;;;31.00;86.80;;;;;;4953256;28;20435;-79
2023/06/20 14:26:50;;;;;;;7.07;4.10;;;30.90;86.60;;;;;;4941664;29;20863;-78
2023/06/20 14:29:15;;;;;;;4.27;2.90;;;30.90;87.40;;;;;;4958080;28;20223;-79
2023/06/20 14:31:41;;;;;;;7.97;3.67;;;30.90;87.50;;;;;;4948639;28;20259;-79
2023/06/20 14:34:07;;;;;;;5.63;3.03;;;30.80;86.30;;;;;;4947298;29;20179;-80
2023/06/20 14:36:35;;;;;;;6.83;4.10;;;30.90;87.50;;;;;;4948728;28;20184;-77
2023/06/20 14:39:01;;;;;;;3.17;2.97;;;31.00;87.00;;;;;;4946017;29;20191;-76
2023/06/20 14:41:26;;;;;;;3.67;2.70;;;31.00;86.60;;;;;;4942813;29;20438;-77
2023/06/20 14:43:52;;;;;;;3.37;2.93;;;31.10;85.70;;;;;;4940526;29;20435;-79
2023/06/20 14:46:17;;;;;;;4.93;3.37;;;31.20;86.30;;;;;;4941937;28;20211;-78
2023/06/20 14:48:43;;;;;;;6.33;5.40;;;31.30;86.60;;;;;;4938425;28;20192;-78
2023/06/20 14:51:09;;;;;;;2.70;2.20;;;31.40;85.90;;;;;;4946314;28;20206;-78
2023/06/20 14:53:34;;;;;;;8.23;3.83;;;31.50;86.00;;;;;;4953238;28;20675;-77
2023/06/20 14:56:00;;;;;;;6.33;4.33;;;31.50;85.00;;;;;;4943344;29;20194;-74
2023/06/20 14:58:26;;;;;;;4.60;2.87;;;31.50;84.80;;;;;;4949415;29;20326;-77
2023/06/20 15:00:51;;;;;;;3.83;3.00;;;31.50;84.90;;;;;;4945794;28;20542;-78
2023/06/20 15:03:17;;;;;;;2.83;2.20;;;31.50;84.90;;;;;;4950845;28;20665;-79
2023/06/20 15:05:43;;;;;;;4.80;3.17;;;31.50;84.30;;;;;;4950155;29;20203;-79
2023/06/20 15:08:09;;;;;;;4.80;3.03;;;31.50;83.90;;;;;;4947737;28;20180;-77
2023/06/20 15:10:35;;;;;;;5.03;3.77;;;31.40;83.90;;;;;;4940843;29;20206;-78
2023/06/20 15:13:01;;;;;;;3.17;2.87;;;31.40;82.90;;;;;;4950372;28;20411;-79
2023/06/20 15:15:28;;;;;;;5.00;2.80;;;31.30;82.10;;;;;;4945844;29;20243;-78
2023/06/20 15:17:55;;;;;;;6.00;3.13;;;31.30;83.30;;;;;;4950546;29;21092;-77
2023/06/20 15:20:21;;;;;;;4.47;3.80;;;31.40;84.30;;;;;;4947540;29;20973;-76
2023/06/20 15:22:47;;;;;;;3.47;2.70;;;31.40;83.90;;;;;;4951434;28;20427;-77
2023/06/20 15:25:12;;;;;;;4.63;2.90;;;31.40;84.20;;;;;;4947629;28;20471;-77
2023/06/20 15:27:38;;;;;;;3.57;3.30;;;31.40;84.30;;;;;;4941271;29;20186;-76
2023/06/20 15:30:04;;;;;;;4.07;3.37;;;31.40;84.50;;;;;;4949512;28;20183;-76
2023/06/20 15:32:30;;;;;;;2.90;2.80;;;31.50;84.40;;;;;;4949658;28;21268;-77
2023/06/20 15:34:56;;;;;;;5.63;4.17;;;31.50;83.80;;;;;;4942550;29;20431;-75
2023/06/20 15:37:21;;;;;;;5.17;2.70;;;31.50;83.70;;;;;;4950926;28;20750;-77
2023/06/20 15:39:46;;;;;;;3.83;3.00;;;31.40;83.90;;;;;;4946866;29;20179;-75
2023/06/20 15:42:12;;;;;;;4.00;2.97;;;31.30;83.50;;;;;;4948476;28;20234;-75
2023/06/20 15:44:41;;;;;;;5.37;3.50;;;31.30;84.10;;;;;;4950538;29;20241;-76
2023/06/20 15:47:07;;;;;;;6.57;3.63;;;31.30;84.50;;;;;;4943093;28;20184;-76
2023/06/20 15:49:33;;;;;;;4.27;2.90;;;31.30;84.50;;;;;;4960485;28;20501;-76
2023/06/20 15:51:59;;;;;;;3.77;3.27;;;31.30;84.90;;;;;;4942933;28;20240;-76
2023/06/20 15:54:24;;;;;;;7.60;3.67;;;31.20;83.20;;;;;;4946283;28;20188;-76
2023/06/20 15:56:50;;;;;;;5.83;3.60;;;31.20;84.00;;;;;;4942663;28;20637;-76
2023/06/20 15:59:16;;;;;;;5.10;3.17;;;31.20;84.00;;;;;;4958782;28;20310;-77
2023/06/20 16:01:42;;;;;;;3.80;2.83;;;31.20;83.80;;;;;;4945962;28;20199;-78
2023/06/20 16:04:08;;;;;;;4.30;3.63;;;31.00;83.70;;;;;;4938615;29;20507;-76
2023/06/20 16:06:34;;;;;;;4.60;3.40;;;31.00;84.50;;;;;;4944829;28;20971;-77
2023/06/20 16:08:59;;;;;;;5.73;3.27;;;31.00;84.90;;;;;;4946610;28;20715;-77
2023/06/20 16:11:28;;;;;;;4.63;3.40;;;30.90;84.40;;;;;;4955946;28;20754;-76
2023/06/20 16:13:54;;;;;;;5.50;3.17;;;30.80;85.10;;;;;;4940713;29;20172;-76
2023/06/20 16:16:19;;;;;;;4.10;2.97;;;30.80;85.10;;;;;;4942583;29;20446;-77
2023/06/20 16:18:45;;;;;;;4.80;3.43;;;30.70;85.70;;;;;;4958974;23;20238;-67
2023/06/20 16:21:13;;;;;;;5.33;3.77;;;30.50;86.70;;;;;;4966079;28;20356;-68
2023/06/20 16:23:43;;;;;;;5.03;3.03;;;30.40;86.40;;;;;;4959103;28;20175;-68
2023/06/20 16:26:10;;;;;;;5.70;3.97;;;30.30;87.20;;;;;;4962711;28;20554;-68
2023/06/20 16:28:36;;;;;;;4.80;2.73;;;30.20;87.80;;;;;;4966461;28;20453;-68
2023/06/20 16:31:02;;;;;;;6.43;3.47;;;30.10;87.50;;;;;;4959252;28;21126;-68
2023/06/20 16:33:28;;;;;;;5.73;4.20;;;30.10;87.70;;;;;;4962835;28;20193;-68
2023/06/20 16:35:55;;;;;;;3.60;3.20;;;30.00;87.50;;;;;;4966919;28;20422;-68
2023/06/20 16:38:21;;;;;;;5.30;3.40;;;29.90;87.00;;;;;;4966488;28;20179;-68
2023/06/20 16:40:46;;;;;;;4.13;3.73;;;29.80;87.20;;;;;;4965568;28;20469;-68
2023/06/20 16:43:12;;;;;;;7.10;4.07;;;29.80;88.10;;;;;;4966454;28;20194;-68
2023/06/20 16:45:37;;;;;;;4.83;3.67;;;29.80;87.90;;;;;;4965345;28;20209;-68
2023/06/20 16:48:03;;;;;;;4.07;3.27;;;29.80;88.20;;;;;;4964005;28;20194;-68